createdAt,value
2023-02-01T00:01:11.749Z,100898.94
2023-02-01T00:03:39.549Z,100882.62
2023-02-01T00:06:07.153Z,100867.91
2023-02-01T00:08:34.620Z,100879.16
2023-02-01T00:11:08.066Z,100881.72
2023-02-01T00:13:41.258Z,100879.16
2023-02-01T00:16:21.159Z,100879.25
2023-02-01T00:18:51.035Z,100890.44
2023-02-01T00:21:23.285Z,100880.03
2023-02-01T00:23:50.950Z,100882.66
2023-02-01T00:26:21.304Z,100885.28
2023-02-01T00:28:48.886Z,100885.34
2023-02-01T00:31:16.586Z,100878.34
2023-02-01T00:33:48.269Z,100882.75
2023-02-01T00:36:16.654Z,100887.03
2023-02-01T00:38:45.219Z,100875.03
2023-02-01T00:41:15.431Z,100868.94
2023-02-01T00:43:42.977Z,100877.63
2023-02-01T00:46:11.847Z,100875.88
2023-02-01T00:48:39.717Z,100866.38
2023-02-01T00:51:13.087Z,100856.84
2023-02-01T00:53:41.358Z,100852.50
2023-02-01T00:56:09.902Z,100849.91
2023-02-01T00:58:37.474Z,100845.62
2023-02-01T01:01:17.301Z,100841.25
2023-02-01T01:03:48.365Z,100837.81
2023-02-01T01:06:17.610Z,100857.72
2023-02-01T01:08:45.337Z,100841.31
2023-02-01T01:11:17.424Z,100842.16
2023-02-01T01:13:48.534Z,100843.00
2023-02-01T01:16:16.528Z,100850.81
2023-02-01T01:18:44.448Z,100855.09
2023-02-01T01:21:14.330Z,100844.72
2023-02-01T01:23:42.351Z,100850.78
2023-02-01T01:26:13.159Z,100847.31
2023-02-01T01:28:41.396Z,100845.62
2023-02-01T01:31:10.699Z,100842.16
2023-02-01T01:33:38.735Z,100851.66
2023-02-01T01:36:08.684Z,100845.66
2023-02-01T01:38:36.271Z,100847.34
2023-02-01T01:41:03.993Z,100845.62
2023-02-01T01:43:54.538Z,100841.34
2023-02-01T01:46:25.592Z,100824.94
2023-02-01T01:49:05.263Z,100812.91
2023-02-01T01:51:37.495Z,100828.38
2023-02-01T01:54:14.020Z,100813.69
2023-02-01T01:56:41.908Z,100816.28
2023-02-01T01:59:10.324Z,100811.06
2023-02-01T02:01:37.980Z,100798.97
2023-02-01T02:04:06.060Z,100804.13
2023-02-01T02:06:40.351Z,100804.13
2023-02-01T02:09:08.786Z,100797.28
2023-02-01T02:11:36.728Z,100799.81
2023-02-01T02:14:06.186Z,100805.03
2023-02-01T02:16:40.406Z,100796.41
2023-02-01T02:19:23.735Z,100797.25
2023-02-01T02:22:28.847Z,100805.06
2023-02-01T02:25:14.678Z,100813.72
2023-02-01T02:27:45.291Z,100805.09
2023-02-01T02:30:31.916Z,100793.00
2023-02-01T02:33:33.674Z,100786.94
2023-02-01T02:36:19.028Z,100793.00
2023-02-01T02:38:58.725Z,100782.66
2023-02-01T02:42:26.829Z,100789.56
2023-02-01T02:45:27.674Z,100775.69
2023-02-01T02:48:04.142Z,100775.63
2023-02-01T02:51:02.558Z,100777.31
2023-02-01T02:53:58.414Z,100766.94
2023-02-01T02:56:46.192Z,100771.16
2023-02-01T02:59:35.311Z,100774.50
2023-02-01T03:02:22.013Z,100764.06
2023-02-01T03:04:57.268Z,100745.72
2023-02-01T03:07:47.703Z,100739.63
2023-02-01T03:10:46.702Z,100743.09
2023-02-01T03:13:20.526Z,100741.31
2023-02-01T03:16:07.609Z,100749.97
2023-02-01T03:18:35.440Z,100740.44
2023-02-01T03:21:06.752Z,100741.31
2023-02-01T03:23:36.168Z,100746.50
2023-02-01T03:26:05.316Z,100749.06
2023-02-01T03:28:34.519Z,100740.41
2023-02-01T03:31:02.621Z,100744.72
2023-02-01T03:33:31.344Z,100749.00
2023-02-01T03:36:04.141Z,100743.00
2023-02-01T03:38:38.316Z,100739.59
2023-02-01T03:41:10.161Z,100744.88
2023-02-01T03:43:51.681Z,100749.19
2023-02-01T03:46:33.617Z,100764.75
2023-02-01T03:49:04.810Z,100756.91
2023-02-01T03:51:33.189Z,100763.00
2023-02-01T03:54:03.178Z,100759.53
2023-02-01T03:56:31.623Z,100761.28
2023-02-01T03:59:00.078Z,100747.53
2023-02-01T04:01:30.215Z,100756.16
2023-02-01T04:03:59.080Z,100761.31
2023-02-01T04:06:27.360Z,100757.84
2023-02-01T04:08:55.397Z,100763.91
2023-02-01T04:11:23.479Z,100761.28
2023-02-01T04:13:50.962Z,100768.22
2023-02-01T04:16:18.523Z,100761.34
2023-02-01T04:18:46.356Z,100757.94
2023-02-01T04:21:13.982Z,100753.66
2023-02-01T04:23:41.530Z,100765.66
2023-02-01T04:26:09.372Z,100773.50
2023-02-01T04:28:36.940Z,100770.91
2023-02-01T04:31:04.695Z,100770.06
2023-02-01T04:33:32.898Z,100770.03
2023-02-01T04:36:00.437Z,100766.59
2023-02-01T04:38:30.435Z,100776.09
2023-02-01T04:40:58.325Z,100776.94
2023-02-01T04:43:25.999Z,100781.31
2023-02-01T04:45:54.984Z,100771.81
2023-02-01T04:48:24.969Z,100777.94
2023-02-01T04:50:52.751Z,100773.66
2023-02-01T04:53:20.351Z,100785.75
2023-02-01T04:55:49.606Z,100793.59
2023-02-01T04:58:17.704Z,100801.34
2023-02-01T05:00:45.349Z,100784.97
2023-02-01T05:03:13.204Z,100804.00
2023-02-01T05:05:40.933Z,100814.44
2023-02-01T05:08:08.872Z,100817.97
2023-02-01T05:10:36.736Z,100814.59
2023-02-01T05:13:22.891Z,100806.78
2023-02-01T05:15:51.949Z,100807.53
2023-02-01T05:18:19.983Z,100806.63
2023-02-01T05:20:47.592Z,100811.06
2023-02-01T05:23:15.488Z,100810.31
2023-02-01T05:25:42.986Z,100809.38
2023-02-01T05:28:10.744Z,100800.84
2023-02-01T05:30:41.195Z,100803.53
2023-02-01T05:33:09.688Z,100807.94
2023-02-01T05:35:37.261Z,100802.84
2023-02-01T05:38:05.073Z,100801.94
2023-02-01T05:40:32.685Z,100797.66
2023-02-01T05:43:00.256Z,100796.87
2023-02-01T05:45:28.054Z,100806.41
2023-02-01T05:47:55.696Z,100808.09
2023-02-01T05:50:23.638Z,100813.37
2023-02-01T05:52:57.532Z,100816.00
2023-02-01T05:55:25.095Z,100815.16
2023-02-01T05:57:53.011Z,100814.31
2023-02-01T06:00:22.409Z,100823.00
2023-02-01T06:02:50.632Z,100822.66
2023-02-01T06:05:18.289Z,100821.44
2023-02-01T06:07:45.894Z,100828.88
2023-02-01T06:10:14.096Z,100832.94
2023-02-01T06:12:41.623Z,100841.16
2023-02-01T06:15:09.515Z,100840.31
2023-02-01T06:17:42.315Z,100844.41
2023-02-01T06:20:12.123Z,100850.13
2023-02-01T06:22:40.555Z,100849.56
2023-02-01T06:25:10.177Z,100847.78
2023-02-01T06:27:38.077Z,100854.84
2023-02-01T06:30:07.640Z,100866.16
2023-02-01T06:32:35.465Z,100854.91
2023-02-01T06:35:03.027Z,100854.91
2023-02-01T06:37:31.128Z,100861.00
2023-02-01T06:39:58.876Z,100851.56
2023-02-01T06:42:26.689Z,100856.69
2023-02-01T06:44:54.692Z,100861.91
2023-02-01T06:47:22.321Z,100862.78
2023-02-01T06:49:50.072Z,100864.47
2023-02-01T06:52:17.950Z,100856.75
2023-02-01T06:54:45.557Z,100866.22
2023-02-01T06:57:13.082Z,100872.25
2023-02-01T06:59:41.113Z,100865.38
2023-02-01T07:02:12.613Z,100851.53
2023-02-01T07:04:40.314Z,100853.25
2023-02-01T07:07:08.444Z,100862.75
2023-02-01T07:09:36.311Z,100847.09
2023-02-01T07:12:04.035Z,100851.34
2023-02-01T07:14:31.967Z,100849.34
2023-02-01T07:16:59.584Z,100852.75
2023-02-01T07:19:27.187Z,100862.03
2023-02-01T07:21:55.085Z,100862.91
2023-02-01T07:24:22.783Z,100854.88
2023-02-01T07:26:52.131Z,100870.34
2023-02-01T07:29:20.582Z,100870.13
2023-02-01T07:31:48.473Z,100863.22
2023-02-01T07:34:16.369Z,100880.16
2023-02-01T07:36:44.445Z,100878.28
2023-02-01T07:39:12.260Z,100881.75
2023-02-01T07:41:40.074Z,100875.56
2023-02-01T07:44:08.026Z,100880.66
2023-02-01T07:46:35.646Z,100884.03
2023-02-01T07:49:03.416Z,100887.28
2023-02-01T07:51:33.163Z,100876.06
2023-02-01T07:54:00.734Z,100889.66
2023-02-01T07:56:28.488Z,100879.91
2023-02-01T07:58:57.323Z,100883.28
2023-02-01T08:01:26.700Z,100894.28
2023-02-01T08:04:03.109Z,100893.44
2023-02-01T08:06:33.166Z,100879.44
2023-02-01T08:09:02.054Z,100887.19
2023-02-01T08:11:30.946Z,100883.63
2023-02-01T08:13:59.680Z,100882.06
2023-02-01T08:16:28.344Z,100872.28
2023-02-01T08:18:56.056Z,100872.16
2023-02-01T08:21:26.433Z,100871.97
2023-02-01T08:23:54.372Z,100872.41
2023-02-01T08:26:25.140Z,100874.00
2023-02-01T08:28:56.035Z,100886.06
2023-02-01T08:31:25.977Z,100876.53
2023-02-01T08:34:03.039Z,100884.22
2023-02-01T08:36:34.960Z,100881.59
2023-02-01T08:39:03.247Z,100888.31
2023-02-01T08:41:31.492Z,100878.59
2023-02-01T08:44:00.831Z,100882.78
2023-02-01T08:46:28.561Z,100881.84
2023-02-01T08:48:56.559Z,100869.62
2023-02-01T08:51:24.738Z,100870.31
2023-02-01T08:53:52.612Z,100871.91
2023-02-01T08:56:28.435Z,100869.72
2023-02-01T08:58:56.549Z,100877.31
2023-02-01T09:01:24.235Z,100883.22
2023-02-01T09:03:51.817Z,100881.28
2023-02-01T09:06:19.781Z,100892.41
2023-02-01T09:08:47.469Z,100892.22
2023-02-01T09:11:18.374Z,100884.56
2023-02-01T09:13:46.634Z,100885.81
2023-02-01T09:16:14.465Z,100885.09
2023-02-01T09:18:50.831Z,100885.41
2023-02-01T09:21:30.737Z,100882.94
2023-02-01T09:23:58.663Z,100884.50
2023-02-01T09:26:32.147Z,100895.84
2023-02-01T09:29:01.408Z,100883.91
2023-02-01T09:31:29.244Z,100895.22
2023-02-01T09:33:57.513Z,100899.59
2023-02-01T09:36:25.284Z,100897.69
2023-02-01T09:38:53.984Z,100911.63
2023-02-01T09:41:38.894Z,100905.72
2023-02-01T09:44:35.644Z,100906.75
2023-02-01T09:47:12.743Z,100904.25
2023-02-01T09:49:47.590Z,100890.22
2023-02-01T09:52:16.134Z,100883.22
2023-02-01T09:55:01.969Z,100884.00
2023-02-01T09:57:38.513Z,100889.13
2023-02-01T10:00:19.378Z,100879.47
2023-02-01T10:02:47.344Z,100872.34
2023-02-01T10:05:18.159Z,100879.81
2023-02-01T10:07:48.360Z,100854.63
2023-02-01T10:10:27.006Z,100855.47
2023-02-01T10:12:58.834Z,100849.34
2023-02-01T10:15:38.678Z,100836.97
2023-02-01T10:18:34.078Z,100839.72
2023-02-01T10:21:39.962Z,100847.81
2023-02-01T10:24:17.970Z,100827.50
2023-02-01T10:26:51.602Z,100825.41
2023-02-01T10:29:22.111Z,100815.00
2023-02-01T10:31:50.097Z,100818.62
2023-02-01T10:34:28.260Z,100805.97
2023-02-01T10:37:03.025Z,100805.78
2023-02-01T10:39:30.706Z,100796.87
2023-02-01T10:41:58.911Z,100805.78
2023-02-01T10:44:29.392Z,100809.63
2023-02-01T10:46:57.091Z,100806.16
2023-02-01T10:49:36.031Z,100803.34
2023-02-01T10:52:13.572Z,100812.09
2023-02-01T10:54:41.963Z,100809.25
2023-02-01T10:57:26.790Z,100801.41
2023-02-01T10:59:55.113Z,100793.28
2023-02-01T11:02:34.470Z,100795.91
2023-02-01T11:05:05.302Z,100794.88
2023-02-01T11:07:33.749Z,100796.22
2023-02-01T11:10:02.946Z,100783.19
2023-02-01T11:12:30.931Z,100772.66
2023-02-01T11:15:03.635Z,100768.87
2023-02-01T11:17:39.909Z,100776.81
2023-02-01T11:20:22.955Z,100769.81
2023-02-01T11:22:55.875Z,100754.88
2023-02-01T11:25:24.751Z,100757.53
2023-02-01T11:27:55.851Z,100747.88
2023-02-01T11:30:28.608Z,100745.25
2023-02-01T11:32:56.642Z,100737.22
2023-02-01T11:35:32.529Z,100726.22
2023-02-01T11:38:03.409Z,100734.59
2023-02-01T11:40:40.507Z,100717.12
2023-02-01T11:43:29.390Z,100717.31
2023-02-01T11:46:04.002Z,100705.81
2023-02-01T11:48:33.575Z,100701.37
2023-02-01T11:51:33.286Z,100687.28
2023-02-01T11:54:22.115Z,100684.25
2023-02-01T11:56:58.799Z,100680.69
2023-02-01T11:59:48.626Z,100667.41
2023-02-01T12:02:48.250Z,100663.97
2023-02-01T12:05:27.577Z,100659.97
2023-02-01T12:08:07.262Z,100670.13
2023-02-01T12:10:46.806Z,100656.69
2023-02-01T12:13:55.579Z,100646.78
2023-02-01T12:16:39.785Z,100639.59
2023-02-01T12:19:32.976Z,100623.06
2023-02-01T12:22:36.433Z,100620.34
2023-02-01T12:25:23.744Z,100620.50
2023-02-01T12:28:16.220Z,100627.19
2023-02-01T12:30:52.213Z,100635.03
2023-02-01T12:33:38.790Z,100632.75
2023-02-01T12:36:24.696Z,100618.12
2023-02-01T12:39:15.816Z,100626.00
2023-02-01T12:42:11.053Z,100620.75
2023-02-01T12:45:08.331Z,100604.00
2023-02-01T12:47:46.174Z,100615.72
2023-02-01T12:50:43.171Z,100614.06
2023-02-01T12:53:26.326Z,100610.37
2023-02-01T12:55:57.022Z,100597.72
2023-02-01T12:58:38.266Z,100605.50
2023-02-01T13:01:16.961Z,100602.22
2023-02-01T13:04:11.673Z,100595.25
2023-02-01T13:06:56.042Z,100601.34
2023-02-01T13:09:44.640Z,100591.22
2023-02-01T13:12:17.721Z,100606.75
2023-02-01T13:14:51.562Z,100608.59
2023-02-01T13:17:26.048Z,100610.37
2023-02-01T13:19:57.489Z,100616.37
2023-02-01T13:22:33.162Z,100619.94
2023-02-01T13:25:13.166Z,100614.72
2023-02-01T13:27:41.083Z,100599.06
2023-02-01T13:30:15.600Z,100606.19
2023-02-01T13:33:53.600Z,100617.66
2023-02-01T13:36:11.361Z,100613.53
2023-02-01T13:39:04.701Z,100616.22
2023-02-01T13:41:37.405Z,100618.16
2023-02-01T13:44:12.819Z,100626.97
2023-02-01T13:46:43.585Z,100632.28
2023-02-01T13:49:21.948Z,100641.97
2023-02-01T13:51:52.443Z,100653.34
2023-02-01T13:54:40.535Z,100645.34
2023-02-01T13:57:38.494Z,100640.97
2023-02-01T14:00:35.846Z,100654.03
2023-02-01T14:03:07.570Z,100657.91
2023-02-01T14:05:35.526Z,100654.34
2023-02-01T14:08:06.100Z,100652.00
2023-02-01T14:10:50.225Z,100646.06
2023-02-01T14:13:37.160Z,100643.59
2023-02-01T14:16:05.213Z,100645.59
2023-02-01T14:18:36.000Z,100649.09
2023-02-01T14:21:22.819Z,100652.50
2023-02-01T14:23:54.538Z,100656.88
2023-02-01T14:26:48.239Z,100658.72
2023-02-01T14:29:20.734Z,100660.59
2023-02-01T14:32:05.138Z,100680.63
2023-02-01T14:34:44.265Z,100680.72
2023-02-01T14:37:14.119Z,100681.44
2023-02-01T14:39:47.018Z,100697.38
2023-02-01T14:42:34.772Z,100690.63
2023-02-01T14:45:23.423Z,100698.72
2023-02-01T14:48:06.598Z,100686.75
2023-02-01T14:50:38.490Z,100666.12
2023-02-01T14:53:15.948Z,100663.50
2023-02-01T14:55:45.132Z,100659.25
2023-02-01T14:58:34.769Z,100655.81
2023-02-01T15:01:17.836Z,100665.16
2023-02-01T15:03:52.354Z,100667.75
2023-02-01T15:06:33.430Z,100661.09
2023-02-01T15:09:03.977Z,100665.41
2023-02-01T15:11:31.984Z,100687.03
2023-02-01T15:14:01.531Z,100687.81
2023-02-01T15:16:29.199Z,100694.84
2023-02-01T15:19:12.381Z,100733.28
2023-02-01T15:21:46.878Z,100736.62
2023-02-01T15:24:19.724Z,100738.56
2023-02-01T15:26:47.393Z,100754.53
2023-02-01T15:29:15.677Z,100770.47
2023-02-01T15:31:50.093Z,100762.75
2023-02-01T15:34:19.336Z,100782.81
2023-02-01T15:37:00.663Z,100770.88
2023-02-01T15:39:32.815Z,100780.00
2023-02-01T15:42:03.364Z,100768.25
2023-02-01T15:44:41.283Z,100781.44
2023-02-01T15:47:18.860Z,100818.38
2023-02-01T15:49:54.967Z,100794.16
2023-02-01T15:52:24.979Z,100785.50
2023-02-01T15:54:55.808Z,100763.22
2023-02-01T15:57:35.414Z,100767.66
2023-02-01T16:00:09.303Z,100767.72
2023-02-01T16:02:48.188Z,100776.50
2023-02-01T16:05:41.825Z,100765.31
2023-02-01T16:08:22.913Z,100766.25
2023-02-01T16:10:53.570Z,100774.94
2023-02-01T16:13:21.994Z,100784.53
2023-02-01T16:15:50.442Z,100788.12
2023-02-01T16:18:19.111Z,100787.25
2023-02-01T16:20:48.579Z,100785.50
2023-02-01T16:23:16.241Z,100778.63
2023-02-01T16:25:44.840Z,100777.06
2023-02-01T16:28:13.406Z,100774.47
2023-02-01T16:30:41.653Z,100768.44
2023-02-01T16:33:13.110Z,100764.12
2023-02-01T16:35:40.680Z,100774.44
2023-02-01T16:38:14.171Z,100774.47
2023-02-01T16:40:44.447Z,100781.41
2023-02-01T16:43:19.378Z,100773.56
2023-02-01T16:45:49.542Z,100767.50
2023-02-01T16:48:25.903Z,100767.56
2023-02-01T16:50:55.571Z,100765.00
2023-02-01T16:53:24.818Z,100759.03
2023-02-01T16:55:53.428Z,100756.44
2023-02-01T16:58:22.028Z,100740.00
2023-02-01T17:00:51.907Z,100749.56
2023-02-01T17:03:21.103Z,100734.97
2023-02-01T17:05:54.563Z,100737.63
2023-02-01T17:08:34.927Z,100746.38
2023-02-01T17:11:04.708Z,100749.88
2023-02-01T17:13:33.252Z,100749.88
2023-02-01T17:16:07.357Z,100743.91
2023-02-01T17:18:35.978Z,100748.28
2023-02-01T17:21:05.035Z,100735.31
2023-02-01T17:23:33.589Z,100734.47
2023-02-01T17:26:03.267Z,100737.91
2023-02-01T17:28:31.049Z,100746.63
2023-02-01T17:30:59.139Z,100731.87
2023-02-01T17:33:35.725Z,100734.47
2023-02-01T17:36:06.223Z,100730.19
2023-02-01T17:38:37.122Z,100726.72
2023-02-01T17:41:04.875Z,100719.88
2023-02-01T17:43:32.748Z,100709.53
2023-02-01T17:46:04.196Z,100731.13
2023-02-01T17:48:31.868Z,100726.00
2023-02-01T17:51:01.038Z,100733.81
2023-02-01T17:53:29.812Z,100730.31
2023-02-01T17:56:01.710Z,100709.56
2023-02-01T17:58:33.677Z,100715.59
2023-02-01T18:01:01.842Z,100713.88
2023-02-01T18:03:31.789Z,100715.63
2023-02-01T18:05:59.886Z,100709.56
2023-02-01T18:08:28.969Z,100720.84
2023-02-01T18:11:01.432Z,100718.28
2023-02-01T18:13:29.902Z,100709.62
2023-02-01T18:16:03.704Z,100714.06
2023-02-01T18:18:33.836Z,100713.19
2023-02-01T18:21:02.223Z,100705.41
2023-02-01T18:23:30.824Z,100711.56
2023-02-01T18:25:58.643Z,100715.00
2023-02-01T18:28:26.508Z,100714.19
2023-02-01T18:30:54.537Z,100703.81
2023-02-01T18:33:22.681Z,100712.47
2023-02-01T18:35:50.750Z,100703.00
2023-02-01T18:38:18.601Z,100711.56
2023-02-01T18:40:48.607Z,100701.25
2023-02-01T18:43:16.573Z,100703.81
2023-02-01T18:45:45.774Z,100700.31
2023-02-01T18:48:15.048Z,100706.31
2023-02-01T18:50:44.895Z,100703.56
2023-02-01T18:53:16.368Z,100707.91
2023-02-01T18:55:44.465Z,100708.50
2023-02-01T18:58:15.989Z,100710.00
2023-02-01T19:00:45.500Z,100704.63
2023-02-01T19:03:14.918Z,100704.59
2023-02-01T19:05:43.144Z,100705.63
2023-02-01T19:08:11.242Z,100703.03
2023-02-01T19:10:42.594Z,100691.75
2023-02-01T19:13:13.492Z,100690.87
2023-02-01T19:15:42.740Z,100683.09
2023-02-01T19:18:10.766Z,100682.25
2023-02-01T19:20:45.618Z,100692.38
2023-02-01T19:23:14.610Z,100686.44
2023-02-01T19:25:47.454Z,100675.19
2023-02-01T19:28:15.689Z,100683.03
2023-02-01T19:30:44.900Z,100684.03
2023-02-01T19:33:13.111Z,100680.56
2023-02-01T19:35:40.998Z,100680.56
2023-02-01T19:38:11.442Z,100672.75
2023-02-01T19:40:39.347Z,100673.88
2023-02-01T19:43:07.172Z,100673.69
2023-02-01T19:45:35.944Z,100667.84
2023-02-01T19:48:07.524Z,100675.72
2023-02-01T19:50:35.830Z,100673.03
2023-02-01T19:53:03.911Z,100675.66
2023-02-01T19:55:31.468Z,100672.19
2023-02-01T19:57:59.774Z,100673.97
2023-02-01T20:00:26.514Z,100671.47
2023-02-01T20:02:55.008Z,100671.44
2023-02-01T20:05:23.972Z,100672.88
2023-02-01T20:07:52.100Z,100668.63
2023-02-01T20:10:20.237Z,100660.91
2023-02-01T20:12:49.101Z,100662.66
2023-02-01T20:15:17.007Z,100670.44
2023-02-01T20:17:45.024Z,100663.72
2023-02-01T20:20:15.387Z,100654.94
2023-02-01T20:22:45.370Z,100658.53
2023-02-01T20:25:13.691Z,100674.03
2023-02-01T20:27:42.328Z,100657.78
2023-02-01T20:30:11.456Z,100662.88
2023-02-01T20:32:39.629Z,100652.50
2023-02-01T20:35:07.878Z,100657.66
2023-02-01T20:37:37.744Z,100655.88
2023-02-01T20:40:07.573Z,100653.44
2023-02-01T20:42:35.965Z,100669.91
2023-02-01T20:45:04.827Z,100654.50
2023-02-01T20:47:33.341Z,100669.97
2023-02-01T20:50:01.353Z,100663.00
2023-02-01T20:52:29.163Z,100670.09
2023-02-01T20:54:57.197Z,100674.50
2023-02-01T20:57:24.988Z,100678.88
2023-02-01T20:59:53.139Z,100675.44
2023-02-01T21:02:21.327Z,100675.41
2023-02-01T21:04:49.137Z,100677.25
2023-02-01T21:07:17.002Z,100666.88
2023-02-01T21:09:45.626Z,100669.47
2023-02-01T21:12:13.198Z,100672.09
2023-02-01T21:14:40.744Z,100666.94
2023-02-01T21:17:08.600Z,100660.06
2023-02-01T21:19:43.535Z,100662.66
2023-02-01T21:22:12.591Z,100659.22
2023-02-01T21:24:41.315Z,100655.72
2023-02-01T21:27:09.934Z,100660.91
2023-02-01T21:29:38.050Z,100663.50
2023-02-01T21:32:07.081Z,100656.69
2023-02-01T21:34:35.514Z,100664.44
2023-02-01T21:37:03.756Z,100657.56
2023-02-01T21:39:31.439Z,100662.69
2023-02-01T21:42:14.276Z,100666.16
2023-02-01T21:44:42.453Z,100660.16
2023-02-01T21:47:11.043Z,100655.81
2023-02-01T21:49:38.811Z,100660.16
2023-02-01T21:52:07.312Z,100662.75
2023-02-01T21:54:35.008Z,100655.91
2023-02-01T21:57:02.548Z,100668.00
2023-02-01T21:59:30.445Z,100668.03
2023-02-01T22:01:58.142Z,100678.38
2023-02-01T22:04:26.146Z,100671.50
2023-02-01T22:06:53.777Z,100663.75
2023-02-01T22:09:23.185Z,100680.19
2023-02-01T22:11:52.379Z,100681.06
2023-02-01T22:14:20.507Z,100677.59
2023-02-01T22:16:48.447Z,100681.09
2023-02-01T22:19:16.832Z,100682.75
2023-02-01T22:21:46.174Z,100674.09
2023-02-01T22:24:16.281Z,100674.09
2023-02-01T22:26:44.286Z,100658.50
2023-02-01T22:29:14.988Z,100666.09
2023-02-01T22:31:42.814Z,100672.09
2023-02-01T22:34:11.555Z,100663.34
2023-02-01T22:36:39.923Z,100660.66
2023-02-01T22:39:07.672Z,100663.25
2023-02-01T22:41:35.720Z,100659.78
2023-02-01T22:44:03.260Z,100662.44
2023-02-01T22:46:31.480Z,100663.22
2023-02-01T22:49:00.128Z,100661.50
2023-02-01T22:51:29.352Z,100652.84
2023-02-01T22:53:57.505Z,100650.31
2023-02-01T22:56:30.370Z,100658.97
2023-02-01T22:59:00.692Z,100656.41
2023-02-01T23:01:29.178Z,100656.41
2023-02-01T23:04:01.075Z,100665.88
2023-02-01T23:06:29.451Z,100664.16
2023-02-01T23:08:58.818Z,100667.72
2023-02-01T23:11:27.735Z,100666.03
2023-02-01T23:13:56.234Z,100662.31
2023-02-01T23:16:23.943Z,100657.53
2023-02-01T23:18:51.867Z,100665.91
2023-02-01T23:21:21.842Z,100667.59
2023-02-01T23:23:54.047Z,100663.53
2023-02-01T23:26:23.508Z,100667.91
2023-02-01T23:28:54.177Z,100681.00
2023-02-01T23:31:28.195Z,100676.81
2023-02-01T23:33:56.729Z,100684.75
2023-02-01T23:36:25.797Z,100677.00
2023-02-01T23:38:53.482Z,100673.59
2023-02-01T23:41:23.055Z,100682.13
2023-02-01T23:44:00.930Z,100673.53
2023-02-01T23:46:40.225Z,100670.00
2023-02-01T23:49:09.308Z,100664.00
2023-02-01T23:51:37.347Z,100659.69
2023-02-01T23:54:05.870Z,100653.63
2023-02-01T23:56:35.998Z,100651.03
2023-02-01T23:59:06.654Z,100641.53
